createdAt,value
2018-09-11T00:01:02.242Z,16.10
2018-09-11T00:06:00.784Z,16.10
2018-09-11T00:10:59.832Z,15.90
2018-09-11T00:15:58.240Z,15.90
2018-09-11T00:20:57.588Z,15.80
2018-09-11T00:25:56.797Z,15.80
2018-09-11T00:30:55.563Z,15.80
2018-09-11T00:35:53.381Z,15.70
2018-09-11T00:40:52.481Z,15.70
2018-09-11T00:45:51.105Z,15.70
2018-09-11T00:50:50.548Z,15.70
2018-09-11T00:55:48.791Z,15.70
2018-09-11T01:00:47.601Z,15.70
2018-09-11T01:05:47.578Z,15.70
2018-09-11T01:10:45.776Z,15.60
2018-09-11T01:15:44.318Z,15.70
2018-09-11T01:20:44.255Z,15.80
2018-09-11T01:25:42.997Z,15.90
2018-09-11T01:30:41.321Z,15.90
2018-09-11T01:35:45.832Z,15.90
2018-09-11T01:40:47.496Z,15.90
2018-09-11T01:45:46.832Z,15.90
2018-09-11T01:50:47.062Z,15.80
2018-09-11T01:55:46.146Z,15.70
2018-09-11T02:00:45.407Z,15.60
2018-09-11T02:05:45.657Z,15.50
2018-09-11T02:10:44.766Z,15.50
2018-09-11T02:15:44.475Z,15.40
2018-09-11T02:20:44.721Z,15.40
2018-09-11T02:25:43.413Z,15.30
2018-09-11T02:30:43.095Z,15.20
2018-09-11T02:35:42.871Z,15.20
2018-09-11T02:40:41.391Z,15.10
2018-09-11T02:45:40.285Z,15.00
2018-09-11T02:50:39.747Z,14.90
2018-09-11T02:55:38.783Z,14.90
2018-09-11T03:00:38.816Z,14.70
2018-09-11T03:05:37.618Z,14.80
2018-09-11T03:10:37.129Z,14.70
2018-09-11T03:15:37.085Z,14.70
2018-09-11T03:20:36.564Z,14.60
2018-09-11T03:25:36.521Z,14.60
2018-09-11T03:30:36.150Z,14.50
2018-09-11T03:35:35.282Z,14.50
2018-09-11T03:40:34.844Z,14.40
2018-09-11T03:45:33.959Z,14.50
2018-09-11T03:50:35.556Z,14.40
2018-09-11T03:55:33.065Z,14.40
2018-09-11T04:00:29.340Z,14.20
2018-09-11T04:05:28.272Z,14.10
2018-09-11T04:10:25.218Z,14.20
2018-09-11T04:15:22.869Z,14.20
2018-09-11T04:20:20.237Z,14.20
2018-09-11T04:25:17.720Z,14.20
2018-09-11T04:30:14.802Z,14.00
2018-09-11T04:35:12.845Z,14.00
2018-09-11T04:40:11.040Z,14.00
2018-09-11T04:45:09.483Z,14.00
2018-09-11T04:50:08.630Z,13.90
2018-09-11T04:55:05.911Z,13.90
2018-09-11T05:00:04.036Z,13.90
2018-09-11T05:05:01.516Z,13.90
2018-09-11T05:09:57.741Z,13.90
2018-09-11T05:14:51.052Z,14.00
2018-09-11T05:19:44.836Z,14.10
2018-09-11T05:24:38.208Z,14.10
2018-09-11T05:29:31.453Z,14.20
2018-09-11T05:34:24.714Z,14.30
2018-09-11T05:39:17.963Z,14.40
2018-09-11T05:44:11.186Z,14.60
2018-09-11T05:49:05.413Z,14.70
2018-09-11T05:53:59.522Z,14.80
2018-09-11T05:58:52.825Z,14.90
2018-09-11T06:03:46.097Z,15.00
2018-09-11T06:08:39.333Z,15.20
2018-09-11T06:13:33.123Z,15.30
2018-09-11T06:18:26.866Z,15.50
2018-09-11T06:23:20.187Z,15.70
2018-09-11T06:28:13.432Z,16.00
2018-09-11T06:33:06.651Z,16.30
2018-09-11T06:37:59.893Z,16.40
2018-09-11T06:42:53.173Z,17.00
2018-09-11T06:47:46.512Z,18.10
2018-09-11T06:52:39.756Z,18.70
2018-09-11T06:57:32.959Z,20.30
2018-09-11T07:02:26.294Z,22.50
2018-09-11T07:07:19.693Z,23.00
2018-09-11T07:12:12.898Z,23.60
2018-09-11T07:17:06.292Z,24.30
2018-09-11T07:21:59.606Z,25.00
2018-09-11T07:26:52.962Z,25.80
2018-09-11T07:31:46.293Z,25.20
2018-09-11T07:36:39.531Z,24.30
2018-09-11T07:41:32.771Z,24.70
2018-09-11T07:46:26.013Z,25.70
2018-09-11T07:51:19.270Z,26.20
2018-09-11T07:56:12.514Z,27.10
2018-09-11T08:01:05.745Z,26.20
2018-09-11T08:05:58.957Z,25.80
2018-09-11T08:10:52.199Z,27.40
2018-09-11T08:15:45.489Z,28.50
2018-09-11T08:20:38.724Z,29.30
2018-09-11T08:25:31.961Z,29.90
2018-09-11T08:30:28.921Z,29.80
2018-09-11T08:35:22.150Z,30.30
2018-09-11T08:40:15.466Z,30.00
2018-09-11T08:45:08.721Z,30.00
2018-09-11T08:50:01.981Z,30.00
2018-09-11T08:54:55.293Z,30.60
2018-09-11T08:59:48.525Z,31.10
2018-09-11T09:04:41.817Z,30.30
2018-09-11T09:09:35.087Z,30.60
2018-09-11T09:14:28.332Z,30.90
2018-09-11T09:19:21.751Z,30.00
2018-09-11T09:24:14.985Z,30.40
2018-09-11T09:29:08.889Z,30.10
2018-09-11T09:34:02.226Z,30.30
2018-09-11T09:38:55.589Z,30.10
2018-09-11T09:43:48.834Z,29.50
2018-09-11T09:48:42.108Z,29.30
2018-09-11T09:53:35.320Z,29.00
2018-09-11T09:58:28.837Z,28.50
2018-09-11T10:03:22.130Z,28.30
2018-09-11T10:08:15.376Z,27.90
2018-09-11T10:13:08.604Z,27.60
2018-09-11T10:18:01.850Z,27.40
2018-09-11T10:22:55.082Z,27.20
2018-09-11T10:27:48.310Z,27.00
2018-09-11T10:32:41.643Z,26.70
2018-09-11T10:37:34.974Z,26.80
2018-09-11T10:42:28.217Z,26.90
2018-09-11T10:47:21.441Z,26.70
2018-09-11T10:52:14.696Z,26.70
2018-09-11T10:57:08.058Z,26.60
2018-09-11T11:02:01.334Z,26.80
2018-09-11T11:06:54.631Z,27.00
2018-09-11T11:11:47.905Z,26.80
2018-09-11T11:16:41.182Z,26.70
2018-09-11T11:21:34.420Z,26.70
2018-09-11T11:26:27.634Z,27.00
2018-09-11T11:31:20.898Z,26.90
2018-09-11T11:36:14.175Z,27.00
2018-09-11T11:41:07.456Z,27.20
2018-09-11T11:46:00.804Z,27.30
2018-09-11T11:50:54.037Z,27.40
2018-09-11T11:55:47.268Z,27.30
2018-09-11T12:00:40.567Z,27.40
2018-09-11T12:05:33.832Z,27.50
2018-09-11T12:10:27.099Z,27.40
2018-09-11T12:15:20.334Z,27.30
2018-09-11T12:20:13.571Z,27.50
2018-09-11T12:25:06.841Z,27.70
2018-09-11T12:30:00.795Z,27.90
2018-09-11T12:34:54.091Z,27.90
2018-09-11T12:39:47.363Z,27.70
2018-09-11T12:44:41.330Z,27.80
2018-09-11T12:49:34.562Z,27.90
2018-09-11T12:54:27.783Z,27.90
2018-09-11T12:59:21.069Z,27.90
2018-09-11T13:04:14.346Z,28.00
2018-09-11T13:09:07.912Z,28.10
2018-09-11T13:14:01.204Z,28.10
2018-09-11T13:18:54.420Z,28.00
2018-09-11T13:23:47.662Z,27.90
2018-09-11T13:28:40.893Z,28.30
2018-09-11T13:33:34.130Z,28.70
2018-09-11T13:38:27.372Z,28.60
2018-09-11T13:43:20.623Z,28.60
2018-09-11T13:48:14.323Z,28.70
2018-09-11T13:53:07.589Z,28.70
2018-09-11T13:58:00.857Z,28.70
2018-09-11T14:02:55.141Z,28.50
2018-09-11T14:07:48.400Z,28.80
2018-09-11T14:12:41.726Z,29.00
2018-09-11T14:17:35.083Z,29.00
2018-09-11T14:22:28.353Z,29.00
2018-09-11T14:27:21.831Z,29.20
2018-09-11T14:32:15.085Z,29.30
2018-09-11T14:37:08.424Z,29.10
2018-09-11T14:42:01.696Z,29.00
2018-09-11T14:46:54.977Z,29.10
2018-09-11T14:51:48.539Z,29.00
2018-09-11T14:56:41.835Z,29.00
2018-09-11T15:01:35.137Z,29.10
2018-09-11T15:06:28.430Z,29.00
2018-09-11T15:11:21.726Z,28.90
2018-09-11T15:16:14.985Z,29.00
2018-09-11T15:21:08.233Z,29.00
2018-09-11T15:26:01.549Z,28.80
2018-09-11T15:30:54.818Z,28.70
2018-09-11T15:35:48.066Z,28.60
2018-09-11T15:40:41.326Z,28.50
2018-09-11T15:45:34.569Z,28.20
2018-09-11T15:50:27.841Z,28.00
2018-09-11T15:55:21.134Z,27.80
2018-09-11T16:00:14.443Z,27.70
2018-09-11T16:05:07.704Z,27.60
2018-09-11T16:10:00.951Z,27.50
2018-09-11T16:14:54.207Z,27.40
2018-09-11T16:19:47.506Z,27.20
2018-09-11T16:24:40.771Z,27.10
2018-09-11T16:29:34.038Z,27.10
2018-09-11T16:34:27.354Z,26.90
2018-09-11T16:39:20.605Z,26.90
2018-09-11T16:44:13.839Z,26.80
2018-09-11T16:49:07.809Z,26.60
2018-09-11T16:54:01.139Z,26.60
2018-09-11T16:59:01.272Z,26.40
2018-09-11T17:03:54.532Z,26.40
2018-09-11T17:08:47.860Z,26.30
2018-09-11T17:13:41.055Z,26.10
2018-09-11T17:18:34.328Z,25.90
2018-09-11T17:23:27.589Z,25.70
2018-09-11T17:28:20.819Z,25.50
2018-09-11T17:33:14.107Z,25.30
2018-09-11T17:38:07.381Z,25.10
2018-09-11T17:43:00.635Z,24.90
2018-09-11T17:47:54.943Z,24.70
2018-09-11T17:52:48.157Z,24.60
2018-09-11T17:57:41.475Z,24.40
2018-09-11T18:02:34.951Z,24.20
2018-09-11T18:07:28.279Z,24.00
2018-09-11T18:12:21.505Z,23.90
2018-09-11T18:17:14.761Z,23.70
2018-09-11T18:22:08.039Z,23.50
2018-09-11T18:27:01.277Z,23.40
2018-09-11T18:31:54.665Z,23.30
2018-09-11T18:36:47.950Z,23.20
2018-09-11T18:41:41.291Z,23.00
2018-09-11T18:46:34.560Z,22.90
2018-09-11T18:51:34.600Z,22.90
2018-09-11T18:56:27.821Z,22.70
2018-09-11T19:01:21.057Z,22.60
2018-09-11T19:06:14.301Z,22.40
2018-09-11T19:11:07.639Z,22.30
2018-09-11T19:16:00.939Z,22.10
2018-09-11T19:20:54.237Z,21.90
2018-09-11T19:25:47.510Z,21.70
2018-09-11T19:30:41.521Z,21.60
2018-09-11T19:35:34.819Z,21.50
2018-09-11T19:40:28.077Z,21.40
2018-09-11T19:45:21.375Z,21.30
2018-09-11T19:50:14.735Z,21.10
2018-09-11T19:55:07.977Z,21.00
2018-09-11T20:00:01.295Z,21.00
2018-09-11T20:05:01.275Z,20.90
2018-09-11T20:09:54.531Z,20.90
2018-09-11T20:14:48.768Z,20.90
2018-09-11T20:19:42.051Z,20.80
2018-09-11T20:24:35.296Z,20.70
2018-09-11T20:29:28.551Z,20.70
2018-09-11T20:34:21.818Z,20.70
2018-09-11T20:39:15.071Z,20.60
2018-09-11T20:44:09.417Z,20.50
2018-09-11T20:49:02.665Z,20.40
2018-09-11T20:53:55.941Z,20.30
2018-09-11T20:58:49.159Z,20.20
2018-09-11T21:03:42.412Z,20.20
2018-09-11T21:08:35.664Z,20.00
2018-09-11T21:13:29.064Z,19.80
2018-09-11T21:18:22.361Z,19.80
2018-09-11T21:23:15.611Z,19.70
2018-09-11T21:28:08.994Z,19.70
2018-09-11T21:33:02.265Z,19.60
2018-09-11T21:37:55.511Z,19.60
2018-09-11T21:42:48.714Z,19.50
2018-09-11T21:47:42.016Z,19.50
2018-09-11T21:52:35.348Z,19.40
2018-09-11T21:57:28.551Z,19.30
2018-09-11T22:02:21.814Z,19.30
2018-09-11T22:07:15.067Z,19.20
2018-09-11T22:12:08.295Z,19.10
2018-09-11T22:17:01.694Z,19.10
2018-09-11T22:21:54.999Z,19.10
2018-09-11T22:26:48.206Z,19.00
2018-09-11T22:31:41.432Z,19.00
2018-09-11T22:36:34.705Z,18.90
2018-09-11T22:41:27.923Z,18.80
2018-09-11T22:46:22.055Z,18.70
2018-09-11T22:51:15.293Z,18.60
2018-09-11T22:56:08.566Z,18.60
2018-09-11T23:01:01.758Z,18.50
2018-09-11T23:05:55.135Z,18.40
2018-09-11T23:10:48.384Z,18.30
2018-09-11T23:15:41.579Z,18.30
2018-09-11T23:20:34.781Z,18.20
2018-09-11T23:25:28.085Z,18.10
2018-09-11T23:30:21.307Z,18.10
2018-09-11T23:35:14.601Z,18.10
2018-09-11T23:40:07.908Z,18.10
2018-09-11T23:45:01.126Z,18.00
2018-09-11T23:49:54.867Z,17.90
2018-09-11T23:54:48.081Z,17.90
2018-09-11T23:59:41.387Z,17.80
